createdAt,value
2022-08-28T00:01:58.139Z,18.28
2022-08-28T00:04:29.093Z,18.40
2022-08-28T00:06:59.807Z,18.51
2022-08-28T00:09:30.378Z,18.37
2022-08-28T00:12:00.853Z,18.37
2022-08-28T00:14:31.768Z,18.26
2022-08-28T00:17:02.976Z,18.54
2022-08-28T00:19:38.431Z,18.44
2022-08-28T00:22:08.146Z,18.39
2022-08-28T00:24:38.611Z,18.42
2022-08-28T00:27:26.808Z,18.42
2022-08-28T00:29:57.268Z,18.38
2022-08-28T00:32:28.424Z,18.30
2022-08-28T00:35:00.424Z,18.42
2022-08-28T00:37:30.969Z,18.22
2022-08-28T00:40:01.496Z,18.27
2022-08-28T00:42:38.622Z,18.16
2022-08-28T00:45:09.882Z,18.31
2022-08-28T00:47:40.989Z,18.20
2022-08-28T00:50:14.559Z,18.42
2022-08-28T00:52:48.275Z,18.42
2022-08-28T00:55:22.337Z,18.43
2022-08-28T00:57:56.487Z,18.30
2022-08-28T01:00:29.997Z,18.34
2022-08-28T01:03:01.234Z,18.39
2022-08-28T01:05:32.989Z,18.20
2022-08-28T01:08:04.633Z,18.52
2022-08-28T01:10:37.514Z,18.30
2022-08-28T01:13:08.304Z,18.33
2022-08-28T01:15:42.177Z,18.34
2022-08-28T01:18:16.256Z,18.51
2022-08-28T01:20:58.415Z,18.40
2022-08-28T01:23:53.297Z,18.33
2022-08-28T01:26:24.899Z,18.37
2022-08-28T01:28:58.265Z,18.57
2022-08-28T01:31:31.308Z,18.55
2022-08-28T01:34:01.793Z,18.32
2022-08-28T01:36:33.507Z,18.44
2022-08-28T01:39:07.008Z,18.48
2022-08-28T01:41:43.565Z,18.66
2022-08-28T01:44:17.875Z,18.57
2022-08-28T01:46:48.442Z,18.62
2022-08-28T01:49:19.118Z,18.58
2022-08-28T01:51:49.923Z,18.45
2022-08-28T01:54:21.982Z,18.48
2022-08-28T01:56:53.551Z,18.43
2022-08-28T01:59:24.582Z,18.58
2022-08-28T02:01:56.712Z,18.36
2022-08-28T02:04:31.705Z,18.41
2022-08-28T02:06:59.824Z,18.50
2022-08-28T02:09:30.373Z,18.40
2022-08-28T02:12:00.838Z,18.58
2022-08-28T02:14:31.571Z,18.47
2022-08-28T02:17:03.009Z,18.55
2022-08-28T02:19:34.041Z,18.60
2022-08-28T02:22:06.296Z,18.40
2022-08-28T02:24:37.203Z,18.55
2022-08-28T02:27:07.979Z,18.48
2022-08-28T02:29:39.297Z,18.55
2022-08-28T02:32:09.721Z,18.58
2022-08-28T02:34:41.457Z,18.64
2022-08-28T02:37:13.707Z,18.60
2022-08-28T02:39:44.788Z,18.62
2022-08-28T02:42:15.791Z,18.60
2022-08-28T02:44:47.317Z,18.47
2022-08-28T02:47:18.321Z,18.55
2022-08-28T02:49:48.987Z,18.50
2022-08-28T02:52:19.743Z,18.64
2022-08-28T02:54:50.124Z,18.44
2022-08-28T02:57:20.594Z,18.45
2022-08-28T02:59:51.024Z,18.40
2022-08-28T03:02:21.551Z,18.50
2022-08-28T03:04:53.975Z,18.34
2022-08-28T03:07:24.418Z,18.25
2022-08-28T03:09:54.918Z,18.30
2022-08-28T03:12:25.776Z,18.25
2022-08-28T03:14:56.885Z,18.05
2022-08-28T03:17:27.427Z,18.03
2022-08-28T03:19:57.905Z,18.13
2022-08-28T03:22:46.323Z,18.39
2022-08-28T03:25:17.430Z,18.19
2022-08-28T03:27:49.215Z,18.25
2022-08-28T03:30:20.710Z,18.14
2022-08-28T03:32:52.218Z,18.24
2022-08-28T03:35:22.592Z,18.22
2022-08-28T03:37:53.071Z,17.91
2022-08-28T03:40:23.612Z,17.93
2022-08-28T03:42:54.201Z,18.06
2022-08-28T03:45:25.147Z,18.08
2022-08-28T03:47:56.525Z,17.92
2022-08-28T03:50:28.472Z,18.10
2022-08-28T03:52:59.939Z,18.08
2022-08-28T03:55:30.401Z,17.98
2022-08-28T03:58:01.131Z,17.79
2022-08-28T04:00:31.573Z,17.83
2022-08-28T04:03:02.461Z,17.91
2022-08-28T04:05:34.613Z,17.84
2022-08-28T04:08:05.815Z,17.82
2022-08-28T04:10:36.778Z,17.65
2022-08-28T04:13:07.554Z,17.87
2022-08-28T04:15:37.982Z,17.83
2022-08-28T04:18:09.196Z,17.83
2022-08-28T04:20:40.064Z,17.87
2022-08-28T04:23:10.583Z,17.80
2022-08-28T04:25:42.021Z,17.72
2022-08-28T04:28:12.742Z,17.82
2022-08-28T04:30:43.317Z,17.92
2022-08-28T04:33:13.714Z,17.75
2022-08-28T04:35:44.168Z,17.60
2022-08-28T04:38:14.695Z,17.64
2022-08-28T04:40:45.344Z,17.66
2022-08-28T04:43:17.278Z,17.66
2022-08-28T04:45:48.318Z,17.32
2022-08-28T04:48:18.974Z,17.29
2022-08-28T04:50:51.144Z,17.05
2022-08-28T04:53:21.724Z,17.04
2022-08-28T04:55:55.208Z,16.95
2022-08-28T04:58:26.183Z,16.99
2022-08-28T05:00:57.119Z,17.04
2022-08-28T05:03:27.598Z,17.03
2022-08-28T05:05:58.058Z,16.96
2022-08-28T05:08:29.589Z,16.98
2022-08-28T05:11:01.649Z,17.02
2022-08-28T05:13:32.113Z,17.02
2022-08-28T05:16:04.595Z,17.02
2022-08-28T05:18:35.822Z,17.08
2022-08-28T05:21:10.610Z,16.94
2022-08-28T05:23:40.103Z,16.90
2022-08-28T05:26:19.863Z,16.96
2022-08-28T05:28:50.867Z,16.94
2022-08-28T05:31:23.863Z,17.00
2022-08-28T05:33:54.828Z,17.01
2022-08-28T05:36:32.656Z,16.96
2022-08-28T05:39:02.060Z,16.80
2022-08-28T05:41:32.997Z,17.00
2022-08-28T05:44:06.840Z,17.00
2022-08-28T05:46:42.368Z,16.96
2022-08-28T05:49:13.484Z,16.70
2022-08-28T05:51:44.175Z,16.80
2022-08-28T05:54:15.788Z,16.90
2022-08-28T05:56:48.063Z,16.88
2022-08-28T05:59:18.904Z,16.65
2022-08-28T06:01:50.842Z,16.90
2022-08-28T06:04:24.228Z,17.00
2022-08-28T06:06:54.993Z,16.99
2022-08-28T06:09:29.782Z,17.26
2022-08-28T06:12:02.702Z,17.06
2022-08-28T06:14:33.965Z,17.06
2022-08-28T06:17:06.165Z,17.27
2022-08-28T06:19:41.270Z,17.07
2022-08-28T06:22:10.904Z,17.12
2022-08-28T06:24:41.799Z,17.01
2022-08-28T06:27:12.259Z,16.92
2022-08-28T06:29:44.344Z,16.90
2022-08-28T06:32:14.961Z,16.82
2022-08-28T06:34:46.025Z,16.98
2022-08-28T06:37:16.550Z,17.15
2022-08-28T06:39:47.099Z,17.12
2022-08-28T06:42:17.560Z,16.94
2022-08-28T06:44:48.013Z,16.74
2022-08-28T06:47:18.373Z,16.70
2022-08-28T06:49:48.752Z,17.00
2022-08-28T06:52:20.524Z,17.10
2022-08-28T06:54:55.480Z,16.95
2022-08-28T06:57:23.691Z,17.13
2022-08-28T07:00:00.794Z,16.88
2022-08-28T07:02:31.523Z,17.41
2022-08-28T07:05:02.047Z,17.62
2022-08-28T07:07:32.845Z,17.45
2022-08-28T07:10:03.514Z,17.58
2022-08-28T07:12:34.140Z,17.67
2022-08-28T07:15:05.625Z,17.67
2022-08-28T07:17:36.066Z,17.78
2022-08-28T07:20:07.248Z,17.85
2022-08-28T07:22:40.165Z,17.96
2022-08-28T07:25:12.146Z,18.31
2022-08-28T07:27:42.519Z,18.46
2022-08-28T07:30:13.521Z,17.95
2022-08-28T07:32:43.947Z,18.15
2022-08-28T07:35:14.365Z,18.56
2022-08-28T07:37:45.047Z,18.31
2022-08-28T07:40:15.491Z,18.60
2022-08-28T07:43:04.226Z,18.47
2022-08-28T07:45:36.044Z,18.64
2022-08-28T07:48:11.530Z,18.44
2022-08-28T07:50:41.361Z,18.56
2022-08-28T07:53:12.139Z,18.47
2022-08-28T07:55:42.624Z,18.44
2022-08-28T07:58:14.678Z,18.11
2022-08-28T08:00:45.691Z,18.12
2022-08-28T08:03:16.326Z,18.02
2022-08-28T08:06:02.901Z,18.36
2022-08-28T08:08:34.951Z,18.42
2022-08-28T08:11:11.188Z,18.85
2022-08-28T08:13:41.726Z,18.60
2022-08-28T08:16:21.643Z,18.78
2022-08-28T08:18:53.249Z,18.82
2022-08-28T08:21:28.286Z,18.33
2022-08-28T08:23:56.395Z,18.17
2022-08-28T08:26:31.244Z,18.44
2022-08-28T08:29:02.430Z,18.40
2022-08-28T08:31:35.232Z,18.43
2022-08-28T08:34:06.954Z,18.02
2022-08-28T08:36:40.144Z,18.29
2022-08-28T08:39:10.611Z,18.35
2022-08-28T08:41:54.405Z,18.43
2022-08-28T08:44:36.643Z,18.56
2022-08-28T08:47:19.524Z,18.62
2022-08-28T08:50:04.732Z,18.37
2022-08-28T08:52:59.041Z,18.40
2022-08-28T08:55:33.794Z,18.54
2022-08-28T08:58:10.635Z,18.39
2022-08-28T09:00:59.557Z,18.15
2022-08-28T09:03:55.867Z,18.23
2022-08-28T09:06:29.482Z,17.90
2022-08-28T09:09:03.631Z,18.15
2022-08-28T09:11:52.265Z,18.08
2022-08-28T09:14:26.937Z,18.07
2022-08-28T09:16:58.961Z,17.80
2022-08-28T09:19:29.398Z,18.00
2022-08-28T09:21:59.855Z,17.85
2022-08-28T09:24:34.380Z,18.16
2022-08-28T09:27:14.305Z,17.98
2022-08-28T09:29:43.904Z,17.97
2022-08-28T09:32:26.619Z,17.86
2022-08-28T09:35:11.629Z,17.74
2022-08-28T09:37:45.502Z,17.83
2022-08-28T09:40:48.994Z,18.02
2022-08-28T09:43:28.827Z,17.62
2022-08-28T09:46:26.776Z,17.70
2022-08-28T09:49:15.536Z,17.54
2022-08-28T09:51:47.482Z,17.68
2022-08-28T09:54:22.296Z,17.81
2022-08-28T09:56:53.306Z,17.64
2022-08-28T09:59:26.961Z,17.69
2022-08-28T10:02:03.450Z,17.98
2022-08-28T10:04:54.134Z,17.91
2022-08-28T10:07:46.431Z,18.10
2022-08-28T10:10:35.271Z,17.97
2022-08-28T10:13:08.819Z,18.17
2022-08-28T10:16:04.986Z,17.95
2022-08-28T10:18:58.678Z,17.84
2022-08-28T10:21:32.335Z,17.97
2022-08-28T10:24:14.838Z,17.88
2022-08-28T10:27:06.907Z,17.82
2022-08-28T10:29:58.638Z,17.96
2022-08-28T10:32:37.768Z,17.66
2022-08-28T10:35:14.187Z,17.89
2022-08-28T10:38:06.893Z,17.71
2022-08-28T10:41:04.868Z,17.85
2022-08-28T10:43:47.953Z,17.57
2022-08-28T10:46:27.175Z,17.66
2022-08-28T10:49:05.853Z,18.04
2022-08-28T10:51:44.256Z,17.96
2022-08-28T10:54:19.939Z,17.79
2022-08-28T10:57:12.383Z,17.95
2022-08-28T10:59:46.557Z,18.20
2022-08-28T11:02:20.144Z,18.05
2022-08-28T11:04:56.465Z,17.88
2022-08-28T11:07:42.152Z,17.81
2022-08-28T11:10:38.554Z,17.93
2022-08-28T11:13:13.058Z,17.96
2022-08-28T11:15:49.724Z,17.92
2022-08-28T11:18:28.976Z,18.02
2022-08-28T11:21:26.920Z,18.17
2022-08-28T11:24:04.219Z,18.06
2022-08-28T11:27:03.365Z,18.05
2022-08-28T11:30:00.173Z,18.20
2022-08-28T11:32:36.666Z,18.47
2022-08-28T11:35:23.338Z,18.34
2022-08-28T11:37:56.490Z,18.08
2022-08-28T11:40:37.030Z,18.04
2022-08-28T11:43:18.832Z,17.96
2022-08-28T11:45:59.822Z,17.99
2022-08-28T11:48:43.198Z,17.72
2022-08-28T11:51:22.778Z,17.97
2022-08-28T11:54:02.071Z,18.04
2022-08-28T11:56:55.093Z,18.16
2022-08-28T11:59:39.214Z,18.00
2022-08-28T12:02:40.087Z,18.10
2022-08-28T12:05:20.192Z,18.04
2022-08-28T12:07:52.441Z,17.95
2022-08-28T12:10:30.675Z,17.84
2022-08-28T12:13:03.974Z,17.70
2022-08-28T12:15:37.533Z,17.91
2022-08-28T12:18:36.661Z,18.04
2022-08-28T12:21:10.347Z,18.10
2022-08-28T12:23:47.102Z,17.98
2022-08-28T12:26:20.724Z,18.18
2022-08-28T12:29:10.989Z,18.22
2022-08-28T12:32:05.953Z,18.22
2022-08-28T12:34:45.773Z,18.46
2022-08-28T12:37:50.853Z,18.60
2022-08-28T12:40:15.471Z,18.72
2022-08-28T12:42:59.627Z,18.54
2022-08-28T12:45:38.856Z,18.62
2022-08-28T12:48:35.530Z,18.65
2022-08-28T12:51:09.606Z,18.63
2022-08-28T12:53:46.674Z,18.82
2022-08-28T12:56:19.763Z,18.55
2022-08-28T12:58:51.289Z,18.37
2022-08-28T13:01:35.486Z,18.33
2022-08-28T13:04:09.184Z,18.31
2022-08-28T13:06:41.173Z,18.30
2022-08-28T13:09:24.631Z,18.45
2022-08-28T13:11:55.231Z,18.59
2022-08-28T13:14:46.680Z,18.66
2022-08-28T13:17:20.316Z,18.95
2022-08-28T13:19:53.852Z,19.17
2022-08-28T13:22:36.735Z,19.66
2022-08-28T13:25:08.127Z,19.45
2022-08-28T13:27:40.149Z,19.53
2022-08-28T13:30:22.825Z,19.80
2022-08-28T13:33:01.482Z,20.04
2022-08-28T13:35:41.460Z,19.82
2022-08-28T13:38:16.492Z,19.66
2022-08-28T13:41:04.804Z,19.43
2022-08-28T13:43:47.179Z,19.45
2022-08-28T13:46:19.967Z,19.72
2022-08-28T13:48:51.078Z,19.94
2022-08-28T13:51:24.105Z,19.71
2022-08-28T13:53:56.365Z,19.73
2022-08-28T13:56:28.873Z,19.84
2022-08-28T13:59:01.052Z,19.84
2022-08-28T14:01:49.905Z,19.88
2022-08-28T14:04:22.797Z,19.56
2022-08-28T14:06:53.538Z,19.58
2022-08-28T14:09:27.055Z,19.61
2022-08-28T14:11:58.041Z,19.42
2022-08-28T14:14:28.676Z,19.76
2022-08-28T14:17:01.322Z,19.84
2022-08-28T14:19:34.263Z,19.58
2022-08-28T14:22:06.223Z,19.42
2022-08-28T14:24:37.312Z,19.57
2022-08-28T14:27:07.923Z,19.55
2022-08-28T14:29:43.189Z,19.80
2022-08-28T14:32:15.969Z,19.75
2022-08-28T14:34:47.978Z,19.94
2022-08-28T14:37:19.450Z,20.18
2022-08-28T14:39:50.878Z,20.24
2022-08-28T14:42:21.368Z,20.07
2022-08-28T14:44:52.014Z,20.20
2022-08-28T14:47:24.134Z,20.29
2022-08-28T14:49:55.836Z,20.30
2022-08-28T14:52:32.549Z,20.37
2022-08-28T14:55:04.647Z,20.57
2022-08-28T14:57:37.746Z,20.46
2022-08-28T15:00:10.011Z,20.66
2022-08-28T15:02:43.462Z,20.65
2022-08-28T15:05:15.545Z,20.63
2022-08-28T15:07:45.991Z,20.83
2022-08-28T15:10:17.219Z,20.58
2022-08-28T15:12:48.346Z,20.78
2022-08-28T15:15:21.507Z,20.78
2022-08-28T15:17:52.446Z,20.84
2022-08-28T15:20:23.596Z,20.94
2022-08-28T15:22:55.171Z,20.90
2022-08-28T15:25:29.294Z,20.86
2022-08-28T15:28:01.480Z,21.03
2022-08-28T15:30:32.426Z,20.99
2022-08-28T15:33:03.227Z,21.10
2022-08-28T15:35:37.155Z,21.21
2022-08-28T15:38:09.391Z,21.12
2022-08-28T15:41:00.156Z,21.27
2022-08-28T15:43:30.793Z,21.20
2022-08-28T15:46:02.218Z,21.24
2022-08-28T15:48:36.900Z,21.03
2022-08-28T15:51:08.488Z,21.19
2022-08-28T15:53:41.529Z,21.22
2022-08-28T15:56:17.834Z,21.19
2022-08-28T15:58:48.485Z,21.26
2022-08-28T16:01:21.191Z,21.34
2022-08-28T16:03:53.267Z,21.37
2022-08-28T16:06:24.711Z,21.44
2022-08-28T16:08:57.178Z,21.46
2022-08-28T16:11:32.228Z,21.25
2022-08-28T16:14:04.725Z,21.33
2022-08-28T16:16:38.343Z,21.18
2022-08-28T16:19:11.461Z,20.97
2022-08-28T16:21:43.353Z,21.08
2022-08-28T16:24:13.942Z,20.91
2022-08-28T16:26:44.535Z,20.97
2022-08-28T16:29:18.277Z,20.95
2022-08-28T16:31:48.781Z,20.96
2022-08-28T16:34:20.355Z,21.09
2022-08-28T16:36:52.366Z,20.96
2022-08-28T16:39:22.937Z,21.01
2022-08-28T16:41:53.932Z,20.94
2022-08-28T16:44:27.679Z,21.01
2022-08-28T16:46:58.259Z,20.94
2022-08-28T16:49:29.199Z,20.87
2022-08-28T16:51:59.703Z,20.85
2022-08-28T16:54:31.698Z,20.88
2022-08-28T16:57:02.887Z,20.86
2022-08-28T16:59:33.629Z,20.86
2022-08-28T17:02:05.731Z,20.74
2022-08-28T17:04:36.342Z,20.70
2022-08-28T17:07:06.866Z,20.73
2022-08-28T17:09:37.452Z,20.66
2022-08-28T17:12:18.630Z,20.63
2022-08-28T17:14:49.827Z,20.50
2022-08-28T17:17:26.065Z,20.55
2022-08-28T17:20:03.591Z,20.50
2022-08-28T17:22:37.156Z,20.36
2022-08-28T17:25:32.261Z,20.30
2022-08-28T17:28:06.877Z,20.40
2022-08-28T17:30:37.353Z,20.28
2022-08-28T17:33:09.146Z,20.44
2022-08-28T17:35:41.808Z,20.41
2022-08-28T17:38:11.770Z,20.27
2022-08-28T17:40:42.440Z,20.15
2022-08-28T17:43:13.330Z,19.94
2022-08-28T17:45:45.599Z,19.96
2022-08-28T17:48:17.594Z,19.92
2022-08-28T17:50:48.186Z,19.76
2022-08-28T17:53:19.744Z,19.64
2022-08-28T17:55:52.075Z,19.60
2022-08-28T17:58:22.423Z,19.42
2022-08-28T18:00:54.609Z,19.29
2022-08-28T18:03:25.199Z,19.28
2022-08-28T18:05:56.697Z,19.26
2022-08-28T18:08:28.367Z,19.16
2022-08-28T18:11:00.809Z,19.15
2022-08-28T18:13:32.161Z,19.11
2022-08-28T18:16:02.989Z,19.04
2022-08-28T18:18:36.439Z,19.25
2022-08-28T18:21:07.638Z,19.21
2022-08-28T18:23:47.566Z,19.16
2022-08-28T18:26:17.651Z,19.28
2022-08-28T18:28:48.178Z,19.14
2022-08-28T18:31:19.584Z,19.07
2022-08-28T18:33:52.130Z,19.05
2022-08-28T18:36:23.299Z,19.19
2022-08-28T18:38:54.231Z,19.00
2022-08-28T18:41:34.579Z,19.03
2022-08-28T18:44:04.715Z,18.84
2022-08-28T18:46:32.751Z,18.80
2022-08-28T18:49:04.578Z,18.74
2022-08-28T18:51:35.104Z,18.60
2022-08-28T18:54:06.206Z,18.55
2022-08-28T18:56:38.229Z,18.59
2022-08-28T18:59:09.300Z,18.48
2022-08-28T19:01:39.957Z,18.40
2022-08-28T19:04:10.589Z,18.29
2022-08-28T19:06:41.957Z,18.34
2022-08-28T19:09:19.398Z,18.24
2022-08-28T19:11:44.797Z,18.20
2022-08-28T19:14:15.171Z,18.16
2022-08-28T19:16:46.755Z,18.16
2022-08-28T19:19:17.182Z,18.08
2022-08-28T19:21:48.755Z,18.01
2022-08-28T19:24:22.382Z,18.00
2022-08-28T19:26:54.971Z,17.91
2022-08-28T19:29:25.963Z,17.84
2022-08-28T19:31:56.857Z,17.84
2022-08-28T19:34:29.822Z,17.81
2022-08-28T19:37:01.368Z,17.70
2022-08-28T19:39:33.875Z,17.65
2022-08-28T19:42:06.684Z,18.03
2022-08-28T19:48:00.590Z,18.49
2022-08-28T19:50:30.954Z,18.22
2022-08-28T19:53:01.582Z,18.04
2022-08-28T19:55:35.708Z,17.88
2022-08-28T19:58:06.634Z,17.76
2022-08-28T20:00:37.196Z,17.66
2022-08-28T20:03:07.941Z,17.69
2022-08-28T20:05:38.551Z,17.46
2022-08-28T20:08:09.252Z,17.41
2022-08-28T20:10:40.566Z,17.35
2022-08-28T20:13:11.658Z,17.30
2022-08-28T20:15:45.602Z,17.32
2022-08-28T20:18:17.497Z,17.27
2022-08-28T20:20:49.566Z,17.22
2022-08-28T20:23:19.985Z,17.16
2022-08-28T20:25:52.263Z,17.14
2022-08-28T20:28:22.678Z,17.08
2022-08-28T20:30:53.176Z,17.02
2022-08-28T20:33:24.589Z,17.08
2022-08-28T20:36:03.390Z,16.97
2022-08-28T20:38:34.110Z,16.96
2022-08-28T20:41:09.103Z,16.90
2022-08-28T20:43:40.846Z,16.89
2022-08-28T20:46:13.135Z,16.92
2022-08-28T20:48:44.015Z,16.87
2022-08-28T20:51:14.450Z,16.77
2022-08-28T20:53:45.454Z,16.78
2022-08-28T20:56:16.396Z,16.74
2022-08-28T20:58:46.810Z,16.75
2022-08-28T21:01:17.372Z,16.81
2022-08-28T21:03:48.249Z,16.74
2022-08-28T21:06:18.693Z,16.74
2022-08-28T21:08:50.113Z,16.76
2022-08-28T21:11:20.540Z,16.66
2022-08-28T21:13:51.420Z,16.61
2022-08-28T21:16:21.791Z,16.62
2022-08-28T21:19:12.134Z,16.60
2022-08-28T21:21:24.759Z,16.62
2022-08-28T21:23:55.352Z,16.58
2022-08-28T21:26:25.746Z,16.60
2022-08-28T21:28:56.104Z,16.56
2022-08-28T21:31:26.783Z,16.55
2022-08-28T21:33:57.251Z,16.58
2022-08-28T21:36:27.938Z,16.47
2022-08-28T21:38:58.761Z,16.48
2022-08-28T21:41:29.413Z,16.42
2022-08-28T21:43:59.840Z,16.47
2022-08-28T21:46:30.647Z,16.36
2022-08-28T21:49:01.658Z,16.34
2022-08-28T21:51:32.170Z,16.32
2022-08-28T21:54:02.588Z,16.28
2022-08-28T21:56:33.006Z,16.28
2022-08-28T21:59:03.933Z,16.26
2022-08-28T22:01:35.366Z,16.25
2022-08-28T22:04:06.448Z,16.20
2022-08-28T22:06:37.303Z,16.20
2022-08-28T22:09:09.379Z,16.13
2022-08-28T22:11:39.810Z,16.09
2022-08-28T22:14:11.090Z,16.05
2022-08-28T22:16:41.964Z,16.04
2022-08-28T22:19:12.601Z,16.12
2022-08-28T22:22:00.859Z,16.02
2022-08-28T22:24:31.225Z,15.94
2022-08-28T22:27:03.385Z,15.94
2022-08-28T22:29:35.374Z,15.90
2022-08-28T22:32:06.896Z,15.84
2022-08-28T22:34:40.367Z,15.87
2022-08-28T22:37:14.393Z,15.83
2022-08-28T22:39:44.747Z,15.77
2022-08-28T22:42:15.207Z,15.74
2022-08-28T22:44:45.660Z,15.78
2022-08-28T22:47:16.078Z,15.82
2022-08-28T22:49:48.555Z,15.74
2022-08-28T22:52:19.508Z,15.86
2022-08-28T22:54:53.174Z,15.82
2022-08-28T22:57:22.184Z,15.77
2022-08-28T22:59:52.625Z,15.75
2022-08-28T23:02:27.306Z,15.83
2022-08-28T23:04:55.921Z,15.86
2022-08-28T23:07:26.437Z,15.82
2022-08-28T23:09:57.578Z,15.79
2022-08-28T23:12:28.830Z,15.74
2022-08-28T23:14:59.186Z,15.77
2022-08-28T23:17:29.993Z,15.75
2022-08-28T23:20:01.957Z,16.04
2022-08-28T23:22:32.313Z,15.96
2022-08-28T23:25:03.008Z,15.76
2022-08-28T23:27:36.161Z,15.76
2022-08-28T23:30:07.925Z,15.86
2022-08-28T23:32:38.381Z,15.85
2022-08-28T23:35:11.810Z,15.80
2022-08-28T23:37:46.667Z,15.70
2022-08-28T23:40:24.135Z,15.70
2022-08-28T23:42:55.529Z,15.68
2022-08-28T23:45:26.109Z,15.68
2022-08-28T23:47:58.250Z,15.57
2022-08-28T23:50:30.260Z,15.44
2022-08-28T23:53:01.139Z,15.68
2022-08-28T23:55:31.706Z,15.46
2022-08-28T23:58:04.673Z,15.47
